createdAt,value
2018-02-09T00:01:44.174Z,74.70
2018-02-09T00:04:14.006Z,74.70
2018-02-09T00:06:44.618Z,74.60
2018-02-09T00:09:14.272Z,74.60
2018-02-09T00:11:43.938Z,74.50
2018-02-09T00:14:13.643Z,74.50
2018-02-09T00:16:43.352Z,74.60
2018-02-09T00:19:13.062Z,74.70
2018-02-09T00:21:42.882Z,74.70
2018-02-09T00:24:12.585Z,74.60
2018-02-09T00:26:42.192Z,74.50
2018-02-09T00:29:12.925Z,75.10
2018-02-09T00:31:44.222Z,74.50
2018-02-09T00:34:13.880Z,74.50
2018-02-09T00:36:43.840Z,74.60
2018-02-09T00:39:13.709Z,74.70
2018-02-09T00:41:43.521Z,75.00
2018-02-09T00:44:14.051Z,75.10
2018-02-09T00:46:43.864Z,75.00
2018-02-09T00:49:13.879Z,75.00
2018-02-09T00:51:45.271Z,75.00
2018-02-09T00:54:14.937Z,75.00
2018-02-09T00:56:44.747Z,74.90
2018-02-09T00:59:15.277Z,75.40
2018-02-09T01:01:45.090Z,75.30
2018-02-09T01:04:14.903Z,74.80
2018-02-09T01:06:44.917Z,74.90
2018-02-09T01:09:15.245Z,75.30
2018-02-09T01:11:45.163Z,75.50
2018-02-09T01:14:15.132Z,75.00
2018-02-09T01:16:44.994Z,75.00
2018-02-09T01:19:14.694Z,75.00
2018-02-09T01:21:44.507Z,75.20
2018-02-09T01:24:14.424Z,75.20
2018-02-09T01:26:44.232Z,75.30
2018-02-09T01:29:14.147Z,75.00
2018-02-09T01:31:44.063Z,74.80
2018-02-09T01:34:14.392Z,74.90
2018-02-09T01:36:44.342Z,75.00
2018-02-09T01:39:14.363Z,75.20
2018-02-09T01:41:44.435Z,75.20
2018-02-09T01:44:15.067Z,75.10
2018-02-09T01:46:45.728Z,75.40
2018-02-09T01:49:16.433Z,75.00
2018-02-09T01:51:46.959Z,74.80
2018-02-09T01:54:16.873Z,74.80
2018-02-09T01:56:46.690Z,74.60
2018-02-09T01:59:17.214Z,74.80
2018-02-09T02:01:46.925Z,74.80
2018-02-09T02:04:16.633Z,75.00
2018-02-09T02:06:48.097Z,74.80
2018-02-09T02:09:18.513Z,75.00
2018-02-09T02:11:48.220Z,74.90
2018-02-09T02:14:18.031Z,75.00
2018-02-09T02:16:47.948Z,74.80
2018-02-09T02:19:17.703Z,75.50
2018-02-09T02:21:47.415Z,74.80
2018-02-09T02:24:17.075Z,74.90
2018-02-09T02:26:46.889Z,75.10
2018-02-09T02:29:17.930Z,76.00
2018-02-09T02:31:49.281Z,75.20
2018-02-09T02:34:18.989Z,75.20
2018-02-09T02:36:49.619Z,75.40
2018-02-09T02:39:19.580Z,75.40
2018-02-09T02:41:49.344Z,75.50
2018-02-09T02:44:19.259Z,75.30
2018-02-09T02:46:49.070Z,75.70
2018-02-09T02:49:18.841Z,75.50
2018-02-09T02:51:48.590Z,75.50
2018-02-09T02:54:18.301Z,75.40
2018-02-09T02:56:48.112Z,75.50
2018-02-09T02:59:17.772Z,75.30
2018-02-09T03:01:47.585Z,75.20
2018-02-09T03:04:17.344Z,75.40
2018-02-09T03:06:47.155Z,75.40
2018-02-09T03:09:16.868Z,75.60
2018-02-09T03:11:46.677Z,75.50
2018-02-09T03:14:16.490Z,75.60
2018-02-09T03:16:46.299Z,75.50
2018-02-09T03:19:16.522Z,75.70
2018-02-09T03:21:46.334Z,75.60
2018-02-09T03:24:16.042Z,75.70
2018-02-09T03:26:45.859Z,75.50
2018-02-09T03:29:15.569Z,75.60
2018-02-09T03:31:45.377Z,75.70
2018-02-09T03:34:15.094Z,75.80
2018-02-09T03:36:44.796Z,75.70
2018-02-09T03:39:14.509Z,75.70
2018-02-09T03:41:44.420Z,75.60
2018-02-09T03:44:14.333Z,75.70
2018-02-09T03:46:44.044Z,75.80
2018-02-09T03:49:14.060Z,75.70
2018-02-09T03:51:43.974Z,75.70
2018-02-09T03:54:13.685Z,75.60
2018-02-09T03:56:43.496Z,75.50
2018-02-09T03:59:13.205Z,75.60
2018-02-09T04:01:42.812Z,75.70
2018-02-09T04:04:14.160Z,75.70
2018-02-09T04:06:44.075Z,75.70
2018-02-09T04:09:14.603Z,75.80
2018-02-09T04:11:44.259Z,75.80
2018-02-09T04:14:14.024Z,75.70
2018-02-09T04:16:43.733Z,75.50
2018-02-09T04:19:13.544Z,75.80
2018-02-09T04:21:43.689Z,75.80
2018-02-09T04:24:14.248Z,75.60
2018-02-09T04:26:44.005Z,75.70
2018-02-09T04:29:13.918Z,75.80
2018-02-09T04:31:43.733Z,75.80
2018-02-09T04:34:13.443Z,75.80
2018-02-09T04:36:43.354Z,75.70
2018-02-09T04:39:14.702Z,75.70
2018-02-09T04:41:44.719Z,75.70
2018-02-09T04:44:14.429Z,75.90
2018-02-09T04:46:44.958Z,76.00
2018-02-09T04:49:14.776Z,76.00
2018-02-09T04:51:44.541Z,75.80
2018-02-09T04:54:14.292Z,75.80
2018-02-09T04:56:44.000Z,76.20
2018-02-09T04:59:15.144Z,75.80
2018-02-09T05:01:44.958Z,75.80
2018-02-09T05:04:14.664Z,76.00
2018-02-09T05:06:44.476Z,75.90
2018-02-09T05:09:14.697Z,75.90
2018-02-09T05:11:44.510Z,76.00
2018-02-09T05:14:14.219Z,75.80
2018-02-09T05:16:44.094Z,76.00
2018-02-09T05:19:14.195Z,75.90
2018-02-09T05:21:43.971Z,75.70
2018-02-09T05:24:15.720Z,76.10
2018-02-09T05:26:45.431Z,76.00
2018-02-09T05:29:15.139Z,75.90
2018-02-09T05:31:44.856Z,75.90
2018-02-09T05:34:14.865Z,75.90
2018-02-09T05:36:44.621Z,75.70
2018-02-09T05:39:14.391Z,75.90
2018-02-09T05:41:44.214Z,75.70
2018-02-09T05:44:14.113Z,75.70
2018-02-09T05:46:44.241Z,75.90
2018-02-09T05:49:13.943Z,76.40
2018-02-09T05:51:43.757Z,76.20
2018-02-09T05:54:13.464Z,76.40
2018-02-09T05:56:43.175Z,76.40
2018-02-09T05:59:12.884Z,76.60
2018-02-09T06:01:42.797Z,76.40
2018-02-09T06:04:12.960Z,76.30
2018-02-09T06:06:42.931Z,76.40
2018-02-09T06:09:12.591Z,76.70
2018-02-09T06:11:43.273Z,76.40
2018-02-09T06:14:14.422Z,76.60
2018-02-09T06:16:44.228Z,76.60
2018-02-09T06:19:13.940Z,76.80
2018-02-09T06:21:43.750Z,76.70
2018-02-09T06:24:14.687Z,76.80
2018-02-09T06:26:45.218Z,77.00
2018-02-09T06:29:14.956Z,77.00
2018-02-09T06:31:44.635Z,76.90
2018-02-09T06:34:14.552Z,76.80
2018-02-09T06:36:44.259Z,76.90
2018-02-09T06:39:14.379Z,76.90
2018-02-09T06:41:44.298Z,77.00
2018-02-09T06:44:14.551Z,76.80
2018-02-09T06:46:44.427Z,77.00
2018-02-09T06:49:14.240Z,76.70
2018-02-09T06:51:43.951Z,76.70
2018-02-09T06:54:14.431Z,77.20
2018-02-09T06:56:44.163Z,77.20
2018-02-09T06:59:13.909Z,77.00
2018-02-09T07:01:43.716Z,77.00
2018-02-09T07:04:13.521Z,77.10
2018-02-09T07:06:43.232Z,77.10
2018-02-09T07:09:13.605Z,77.10
2018-02-09T07:11:43.469Z,77.20
2018-02-09T07:14:13.179Z,77.00
2018-02-09T07:16:42.888Z,77.00
2018-02-09T07:19:12.597Z,76.90
2018-02-09T07:21:42.352Z,77.00
2018-02-09T07:24:12.324Z,77.20
2018-02-09T07:26:42.137Z,77.00
2018-02-09T07:29:18.522Z,77.10
2018-02-09T07:31:56.201Z,77.10
2018-02-09T07:34:26.573Z,77.20
2018-02-09T07:36:56.539Z,77.10
2018-02-09T07:39:26.252Z,77.30
2018-02-09T07:41:56.061Z,77.10
2018-02-09T07:44:26.794Z,77.10
2018-02-09T07:46:56.507Z,77.10
2018-02-09T07:49:26.418Z,77.30
2018-02-09T07:51:56.231Z,77.50
2018-02-09T07:54:25.991Z,77.50
2018-02-09T07:56:55.752Z,78.00
2018-02-09T07:59:25.464Z,77.50
2018-02-09T08:01:55.375Z,77.40
2018-02-09T08:04:25.288Z,77.40
2018-02-09T08:06:55.306Z,77.60
2018-02-09T08:09:25.219Z,77.40
2018-02-09T08:11:56.004Z,77.50
2018-02-09T08:14:25.868Z,77.50
2018-02-09T08:16:55.889Z,77.40
2018-02-09T08:19:25.595Z,77.20
2018-02-09T08:21:55.407Z,76.90
2018-02-09T08:24:25.148Z,76.80
2018-02-09T08:26:55.746Z,76.70
2018-02-09T08:29:25.666Z,76.70
2018-02-09T08:31:56.190Z,76.70
2018-02-09T08:34:26.207Z,76.70
2018-02-09T08:36:55.964Z,76.90
2018-02-09T08:39:25.627Z,77.00
2018-02-09T08:41:55.643Z,77.00
2018-02-09T08:44:25.864Z,76.80
2018-02-09T08:46:55.576Z,76.80
2018-02-09T08:49:25.488Z,76.90
2018-02-09T08:51:55.144Z,77.00
2018-02-09T08:54:25.471Z,76.90
2018-02-09T08:56:55.233Z,77.00
2018-02-09T08:59:25.455Z,76.90
2018-02-09T09:01:55.274Z,76.90
2018-02-09T09:04:25.692Z,76.90
2018-02-09T09:06:55.400Z,76.90
2018-02-09T09:09:25.417Z,76.80
2018-02-09T09:11:55.131Z,76.60
2018-02-09T09:14:24.836Z,77.40
2018-02-09T09:16:54.699Z,76.70
2018-02-09T09:19:24.460Z,76.70
2018-02-09T09:21:54.320Z,76.50
2018-02-09T09:24:24.087Z,76.60
2018-02-09T09:26:53.843Z,76.30
2018-02-09T09:29:23.816Z,76.30
2018-02-09T09:31:53.522Z,76.50
2018-02-09T09:34:23.436Z,76.20
2018-02-09T09:36:53.042Z,76.20
2018-02-09T09:39:23.276Z,76.10
2018-02-09T09:41:53.932Z,76.20
2018-02-09T09:44:23.740Z,76.20
2018-02-09T09:46:53.416Z,76.20
2018-02-09T09:49:23.230Z,76.20
2018-02-09T09:51:53.756Z,76.00
2018-02-09T09:54:24.184Z,76.00
2018-02-09T09:56:53.893Z,76.10
2018-02-09T09:59:24.020Z,76.10
2018-02-09T10:01:53.825Z,76.10
2018-02-09T10:04:23.894Z,76.10
2018-02-09T10:06:53.753Z,76.00
2018-02-09T10:09:23.365Z,76.00
2018-02-09T10:11:53.891Z,75.80
2018-02-09T10:14:23.601Z,75.70
2018-02-09T10:16:53.263Z,75.80
2018-02-09T10:19:22.870Z,75.80
2018-02-09T10:21:52.729Z,75.90
2018-02-09T10:24:22.951Z,75.60
2018-02-09T10:26:53.993Z,75.80
2018-02-09T10:29:23.701Z,75.80
2018-02-09T10:31:55.051Z,75.90
2018-02-09T10:34:25.016Z,75.90
2018-02-09T10:36:55.537Z,76.00
2018-02-09T10:39:25.512Z,75.90
2018-02-09T10:41:55.524Z,76.00
2018-02-09T10:44:25.339Z,75.90
2018-02-09T10:46:55.295Z,75.80
2018-02-09T10:49:25.261Z,75.80
2018-02-09T10:51:55.092Z,75.70
2018-02-09T10:54:24.892Z,75.90
2018-02-09T10:56:55.012Z,75.90
2018-02-09T10:59:24.903Z,76.00
2018-02-09T11:01:54.738Z,75.90
2018-02-09T11:04:24.549Z,75.80
2018-02-09T11:06:54.361Z,75.90
2018-02-09T11:09:29.297Z,76.00
2018-02-09T11:11:59.520Z,75.90
2018-02-09T11:14:30.048Z,76.00
2018-02-09T11:16:59.856Z,76.00
2018-02-09T11:19:29.727Z,75.90
2018-02-09T11:21:59.583Z,76.40
2018-02-09T11:24:30.010Z,75.90
2018-02-09T11:26:59.823Z,75.70
2018-02-09T11:29:29.531Z,76.00
2018-02-09T11:31:59.239Z,76.10
2018-02-09T11:34:29.439Z,75.60
2018-02-09T11:36:59.170Z,75.70
2018-02-09T11:39:29.424Z,75.80
2018-02-09T11:41:59.204Z,75.50
2018-02-09T11:44:28.913Z,75.50
2018-02-09T11:46:58.725Z,75.70
2018-02-09T11:49:28.948Z,76.20
2018-02-09T11:51:58.656Z,76.10
2018-02-09T11:54:29.391Z,76.20
2018-02-09T11:56:59.100Z,76.20
2018-02-09T11:59:29.940Z,76.00
2018-02-09T12:02:00.415Z,75.80
2018-02-09T12:04:30.583Z,75.70
2018-02-09T12:07:02.287Z,76.30
2018-02-09T12:09:32.748Z,76.30
2018-02-09T12:12:03.949Z,76.20
2018-02-09T12:14:34.049Z,76.00
2018-02-09T12:17:04.153Z,76.50
2018-02-09T12:19:36.308Z,76.20
2018-02-09T12:22:06.849Z,76.30
2018-02-09T12:24:36.957Z,76.20
2018-02-09T12:27:06.838Z,76.70
2018-02-09T12:29:36.915Z,76.50
2018-02-09T12:32:07.788Z,76.40
2018-02-09T12:34:38.170Z,76.30
2018-02-09T12:37:08.513Z,76.70
2018-02-09T12:39:38.297Z,77.00
2018-02-09T12:42:08.589Z,76.70
2018-02-09T12:44:38.537Z,76.70
2018-02-09T12:47:08.453Z,76.70
2018-02-09T12:49:38.466Z,76.90
2018-02-09T12:52:08.172Z,76.50
2018-02-09T12:54:37.985Z,76.40
2018-02-09T12:57:07.852Z,75.00
2018-02-09T12:59:37.610Z,74.00
2018-02-09T13:02:07.467Z,74.40
2018-02-09T13:04:37.233Z,74.90
2018-02-09T13:07:07.148Z,75.50
2018-02-09T13:09:37.061Z,75.50
2018-02-09T13:12:06.773Z,75.60
2018-02-09T13:14:46.312Z,75.90
2018-02-09T13:17:16.123Z,75.90
2018-02-09T13:19:45.835Z,76.10
2018-02-09T13:22:26.705Z,76.00
2018-02-09T13:25:02.840Z,76.10
2018-02-09T13:27:39.757Z,76.30
2018-02-09T13:30:10.168Z,76.00
2018-02-09T13:33:51.968Z,76.50
2018-02-09T13:36:26.560Z,76.40
2018-02-09T13:38:57.023Z,76.50
2018-02-09T13:41:27.138Z,76.80
2018-02-09T13:43:56.851Z,76.70
2018-02-09T13:46:27.788Z,76.60
2018-02-09T13:49:06.354Z,76.60
2018-02-09T13:51:45.372Z,76.70
2018-02-09T13:54:22.178Z,77.20
2018-02-09T13:56:52.476Z,76.50
2018-02-09T13:59:22.381Z,76.50
2018-02-09T14:01:52.409Z,76.90
2018-02-09T14:04:22.582Z,76.80
2018-02-09T14:06:52.554Z,76.90
2018-02-09T14:09:22.466Z,77.20
2018-02-09T14:11:55.607Z,77.20
2018-02-09T14:14:25.360Z,77.20
2018-02-09T14:16:55.022Z,77.20
2018-02-09T14:19:24.836Z,77.30
2018-02-09T14:21:55.362Z,77.50
2018-02-09T14:24:30.959Z,77.50
2018-02-09T14:27:00.881Z,77.60
2018-02-09T14:29:30.779Z,77.50
2018-02-09T14:32:00.652Z,77.40
2018-02-09T14:34:30.468Z,77.60
2018-02-09T14:37:00.462Z,77.50
2018-02-09T14:39:30.618Z,77.60
2018-02-09T14:42:00.521Z,77.80
2018-02-09T14:44:30.477Z,77.60
2018-02-09T14:47:00.344Z,77.80
2018-02-09T14:49:30.310Z,77.90
2018-02-09T14:51:59.972Z,77.90
2018-02-09T14:54:31.010Z,78.00
2018-02-09T14:57:00.951Z,77.90
2018-02-09T14:59:31.555Z,78.10
2018-02-09T15:02:01.367Z,78.10
2018-02-09T15:04:31.367Z,78.00
2018-02-09T15:07:01.092Z,78.10
2018-02-09T15:09:31.131Z,78.10
2018-02-09T15:12:01.746Z,78.10
2018-02-09T15:14:33.426Z,78.00
2018-02-09T15:17:03.540Z,78.00
2018-02-09T15:19:34.356Z,78.10
2018-02-09T15:22:04.270Z,78.10
2018-02-09T15:24:34.568Z,77.80
2018-02-09T15:27:04.402Z,77.80
2018-02-09T15:29:34.934Z,77.80
2018-02-09T15:32:04.744Z,77.70
2018-02-09T15:34:34.452Z,78.00
2018-02-09T15:37:05.952Z,77.60
2018-02-09T15:39:35.919Z,77.60
2018-02-09T15:42:05.732Z,77.50
2018-02-09T15:44:35.804Z,77.50
2018-02-09T15:47:05.631Z,77.60
2018-02-09T15:49:35.625Z,77.50
2018-02-09T15:52:06.371Z,77.60
2018-02-09T15:54:36.126Z,77.90
2018-02-09T15:57:06.941Z,78.10
2018-02-09T15:59:37.086Z,78.10
2018-02-09T16:02:06.994Z,78.10
2018-02-09T16:04:38.546Z,78.30
2018-02-09T16:07:08.742Z,78.30
2018-02-09T16:09:38.581Z,78.30
2018-02-09T16:12:09.394Z,78.40
2018-02-09T16:14:39.433Z,78.40
2018-02-09T16:17:09.401Z,78.50
2018-02-09T16:19:39.261Z,78.60
2018-02-09T16:22:09.018Z,78.40
2018-02-09T16:24:39.581Z,78.40
2018-02-09T16:27:09.494Z,78.40
2018-02-09T16:29:39.538Z,78.50
2018-02-09T16:32:09.408Z,77.60
2018-02-09T16:34:40.126Z,75.90
2018-02-09T16:37:10.219Z,75.80
2018-02-09T16:39:40.212Z,75.50
2018-02-09T16:42:10.131Z,75.30
2018-02-09T16:44:40.864Z,74.60
2018-02-09T16:47:11.026Z,74.50
2018-02-09T16:49:40.897Z,74.20
2018-02-09T16:52:11.732Z,74.20
2018-02-09T16:54:41.647Z,74.10
2018-02-09T16:57:12.585Z,74.10
2018-02-09T16:59:42.501Z,74.00
2018-02-09T17:02:12.414Z,73.80
2018-02-09T17:04:43.766Z,73.70
2018-02-09T17:07:13.677Z,73.70
2018-02-09T17:09:43.700Z,73.80
2018-02-09T17:12:14.025Z,73.70
2018-02-09T17:14:44.138Z,73.80
2018-02-09T17:17:14.059Z,73.50
2018-02-09T17:19:43.764Z,73.60
2018-02-09T17:22:13.787Z,73.80
2018-02-09T17:24:44.413Z,74.10
2018-02-09T17:27:14.434Z,73.30
2018-02-09T17:29:45.364Z,73.40
2018-02-09T17:32:15.587Z,73.30
2018-02-09T17:34:45.297Z,73.50
2018-02-09T17:37:15.109Z,73.30
2018-02-09T17:39:45.187Z,73.10
2018-02-09T17:42:15.224Z,73.20
2018-02-09T17:44:44.954Z,73.20
2018-02-09T17:47:14.835Z,73.30
2018-02-09T17:49:44.871Z,73.20
2018-02-09T17:52:14.698Z,73.50
2018-02-09T17:54:44.805Z,73.40
2018-02-09T17:57:14.823Z,73.30
2018-02-09T17:59:44.747Z,73.40
2018-02-09T18:02:14.568Z,73.30
2018-02-09T18:04:44.427Z,73.50
2018-02-09T18:07:14.285Z,73.60
2018-02-09T18:09:44.210Z,73.50
2018-02-09T18:12:15.139Z,73.60
2018-02-09T18:14:44.856Z,73.60
2018-02-09T18:17:14.837Z,73.50
2018-02-09T18:19:44.782Z,73.60
2018-02-09T18:22:14.898Z,73.40
2018-02-09T18:24:45.934Z,73.40
2018-02-09T18:27:15.855Z,73.40
2018-02-09T18:29:45.669Z,73.60
2018-02-09T18:32:15.480Z,73.80
2018-02-09T18:34:45.699Z,73.60
2018-02-09T18:37:15.513Z,73.40
2018-02-09T18:39:45.529Z,73.60
2018-02-09T18:42:15.340Z,73.60
2018-02-09T18:44:45.255Z,73.50
2018-02-09T18:47:15.273Z,73.60
2018-02-09T18:49:46.647Z,73.60
2018-02-09T18:52:16.592Z,73.50
2018-02-09T18:54:46.521Z,73.90
2018-02-09T18:57:16.467Z,73.80
2018-02-09T18:59:46.458Z,73.50
2018-02-09T19:02:16.223Z,73.60
2018-02-09T19:04:46.830Z,74.00
2018-02-09T19:07:16.535Z,74.00
2018-02-09T19:09:46.567Z,73.50
2018-02-09T19:12:16.668Z,73.60
2018-02-09T19:14:48.226Z,73.80
2018-02-09T19:17:18.184Z,73.80
2018-02-09T19:19:48.152Z,73.80
2018-02-09T19:22:18.009Z,73.60
2018-02-09T19:24:47.986Z,73.60
2018-02-09T19:27:17.803Z,73.60
2018-02-09T19:29:47.782Z,73.80
2018-02-09T19:32:17.634Z,74.60
2018-02-09T19:34:47.537Z,73.80
2018-02-09T19:37:17.554Z,73.60
2018-02-09T19:39:47.370Z,73.80
2018-02-09T19:42:17.281Z,73.90
2018-02-09T19:44:47.195Z,73.90
2018-02-09T19:47:16.908Z,74.00
2018-02-09T19:49:47.637Z,74.20
2018-02-09T19:52:19.477Z,74.20
2018-02-09T19:54:50.596Z,74.10
2018-02-09T19:57:21.008Z,73.90
2018-02-09T19:59:51.187Z,74.00
2018-02-09T20:02:21.177Z,73.90
2018-02-09T20:04:51.121Z,74.10
2018-02-09T20:07:21.083Z,74.40
2018-02-09T20:09:51.015Z,74.20
2018-02-09T20:12:21.421Z,74.20
2018-02-09T20:14:51.492Z,74.40
2018-02-09T20:17:21.723Z,74.10
2018-02-09T20:19:52.528Z,74.50
2018-02-09T20:22:22.481Z,74.40
2018-02-09T20:24:52.582Z,74.40
2018-02-09T20:27:22.806Z,73.90
2018-02-09T20:29:52.830Z,74.40
2018-02-09T20:32:22.736Z,74.00
2018-02-09T20:34:52.759Z,74.00
2018-02-09T20:37:22.523Z,74.20
2018-02-09T20:39:52.277Z,74.30
2018-02-09T20:42:24.656Z,74.40
2018-02-09T20:44:54.570Z,74.40
2018-02-09T20:47:24.447Z,74.50
2018-02-09T20:49:54.291Z,74.70
2018-02-09T20:52:24.406Z,74.60
2018-02-09T20:54:54.426Z,74.90
2018-02-09T20:57:25.302Z,74.50
2018-02-09T20:59:55.546Z,74.30
2018-02-09T21:02:25.499Z,74.50
2018-02-09T21:04:56.027Z,74.50
2018-02-09T21:07:26.453Z,74.60
2018-02-09T21:09:56.272Z,74.30
2018-02-09T21:12:26.589Z,74.60
2018-02-09T21:14:56.475Z,74.50
2018-02-09T21:17:26.417Z,74.50
2018-02-09T21:19:56.833Z,74.70
2018-02-09T21:22:26.731Z,74.40
2018-02-09T21:24:56.472Z,74.20
2018-02-09T21:27:26.690Z,74.20
2018-02-09T21:29:57.390Z,74.40
2018-02-09T21:32:27.523Z,74.40
2018-02-09T21:34:57.356Z,74.50
2018-02-09T21:37:27.642Z,74.30
2018-02-09T21:39:58.004Z,74.40
2018-02-09T21:42:28.012Z,74.00
2018-02-09T21:44:58.253Z,74.20
2018-02-09T21:47:28.155Z,74.40
2018-02-09T21:49:58.174Z,74.30
2018-02-09T21:52:28.191Z,74.30
2018-02-09T21:54:58.116Z,74.20
2018-02-09T21:57:28.017Z,74.50
2018-02-09T21:59:58.034Z,74.10
2018-02-09T22:02:28.564Z,74.30
2018-02-09T22:04:59.501Z,74.00
2018-02-09T22:07:29.524Z,74.00
2018-02-09T22:10:00.256Z,74.50
2018-02-09T22:12:30.148Z,74.50
2018-02-09T22:15:00.183Z,74.00
2018-02-09T22:17:29.994Z,74.70
2018-02-09T22:19:59.805Z,74.60
2018-02-09T22:22:29.523Z,74.40
2018-02-09T22:24:59.588Z,74.20
2018-02-09T22:27:29.559Z,74.20
2018-02-09T22:30:00.197Z,74.40
2018-02-09T22:32:31.426Z,74.40
2018-02-09T22:35:03.188Z,74.10
2018-02-09T22:37:33.305Z,74.10
2018-02-09T22:40:03.280Z,74.10
2018-02-09T22:42:33.037Z,73.90
2018-02-09T22:45:02.936Z,73.90
2018-02-09T22:47:32.929Z,74.50
2018-02-09T22:50:02.875Z,74.00
2018-02-09T22:52:32.687Z,74.40
2018-02-09T22:55:04.878Z,74.00
2018-02-09T22:57:35.793Z,74.40
2018-02-09T23:00:06.936Z,74.40
2018-02-09T23:02:36.952Z,74.40
2018-02-09T23:05:07.481Z,74.80
2018-02-09T23:07:37.190Z,73.90
2018-02-09T23:10:07.140Z,73.60
2018-02-09T23:12:36.920Z,73.60
2018-02-09T23:15:07.037Z,73.80
2018-02-09T23:17:38.999Z,73.60
2018-02-09T23:20:08.715Z,73.70
2018-02-09T23:22:38.930Z,73.80
2018-02-09T23:25:09.869Z,73.90
2018-02-09T23:27:39.690Z,73.80
2018-02-09T23:30:09.698Z,74.20
2018-02-09T23:32:40.127Z,74.20
2018-02-09T23:35:11.676Z,74.10
2018-02-09T23:37:41.487Z,74.10
2018-02-09T23:40:11.772Z,74.10
2018-02-09T23:42:41.726Z,74.20
2018-02-09T23:45:11.541Z,74.80
2018-02-09T23:47:41.555Z,74.30
2018-02-09T23:50:11.366Z,74.10
2018-02-09T23:52:41.079Z,74.40
2018-02-09T23:55:11.079Z,74.10
2018-02-09T23:57:41.219Z,74.40
